sensor_id;sensor_type;location;lat;lon;timestamp;temperature;humidity
17815;DHT22;9031;50.974;11.330;2023-04-09T00:00:43;7.10;96.30
17815;DHT22;9031;50.974;11.330;2023-04-09T00:03:08;7.30;95.70
17815;DHT22;9031;50.974;11.330;2023-04-09T00:05:38;7.20;95.80
17815;DHT22;9031;50.974;11.330;2023-04-09T00:08:04;7.10;96.30
17815;DHT22;9031;50.974;11.330;2023-04-09T00:10:29;7.10;95.70
17815;DHT22;9031;50.974;11.330;2023-04-09T00:12:55;7.00;96.40
17815;DHT22;9031;50.974;11.330;2023-04-09T00:15:21;6.90;96.20
17815;DHT22;9031;50.974;11.330;2023-04-09T00:17:46;6.90;95.90
17815;DHT22;9031;50.974;11.330;2023-04-09T00:20:12;6.80;95.90
17815;DHT22;9031;50.974;11.330;2023-04-09T00:22:37;6.70;96.30
17815;DHT22;9031;50.974;11.330;2023-04-09T00:25:03;6.70;95.90
17815;DHT22;9031;50.974;11.330;2023-04-09T00:27:28;6.70;95.80
17815;DHT22;9031;50.974;11.330;2023-04-09T00:29:54;6.70;96.00
17815;DHT22;9031;50.974;11.330;2023-04-09T00:32:20;6.70;95.90
17815;DHT22;9031;50.974;11.330;2023-04-09T00:34:46;6.90;95.90
17815;DHT22;9031;50.974;11.330;2023-04-09T00:37:11;6.90;95.60
17815;DHT22;9031;50.974;11.330;2023-04-09T00:39:37;7.00;95.30
17815;DHT22;9031;50.974;11.330;2023-04-09T00:42:02;7.00;95.50
17815;DHT22;9031;50.974;11.330;2023-04-09T00:44:28;7.00;95.60
17815;DHT22;9031;50.974;11.330;2023-04-09T00:46:53;7.00;95.60
17815;DHT22;9031;50.974;11.330;2023-04-09T00:49:20;7.00;95.40
17815;DHT22;9031;50.974;11.330;2023-04-09T00:51:47;6.80;95.50
17815;DHT22;9031;50.974;11.330;2023-04-09T00:54:13;6.70;95.90
17815;DHT22;9031;50.974;11.330;2023-04-09T00:56:39;6.80;95.20
17815;DHT22;9031;50.974;11.330;2023-04-09T00:59:05;6.90;95.40
17815;DHT22;9031;50.974;11.330;2023-04-09T01:01:31;6.80;95.50
17815;DHT22;9031;50.974;11.330;2023-04-09T01:03:57;6.80;95.50
17815;DHT22;9031;50.974;11.330;2023-04-09T01:09:12;6.80;95.60
17815;DHT22;9031;50.974;11.330;2023-04-09T01:11:49;6.70;95.90
17815;DHT22;9031;50.974;11.330;2023-04-09T01:14:20;6.80;95.90
17815;DHT22;9031;50.974;11.330;2023-04-09T01:16:53;6.70;95.90
17815;DHT22;9031;50.974;11.330;2023-04-09T01:21:58;6.70;96.00
17815;DHT22;9031;50.974;11.330;2023-04-09T01:24:39;6.70;96.20
17815;DHT22;9031;50.974;11.330;2023-04-09T01:27:08;6.70;96.20
17815;DHT22;9031;50.974;11.330;2023-04-09T01:29:38;6.60;96.60
17815;DHT22;9031;50.974;11.330;2023-04-09T01:32:06;6.50;96.90
17815;DHT22;9031;50.974;11.330;2023-04-09T01:34:32;6.50;96.90
17815;DHT22;9031;50.974;11.330;2023-04-09T01:37:00;6.60;96.70
17815;DHT22;9031;50.974;11.330;2023-04-09T01:39:27;6.40;97.00
17815;DHT22;9031;50.974;11.330;2023-04-09T01:41:54;6.40;97.00
17815;DHT22;9031;50.974;11.330;2023-04-09T01:44:20;6.40;97.30
17815;DHT22;9031;50.974;11.330;2023-04-09T01:46:48;6.40;97.40
17815;DHT22;9031;50.974;11.330;2023-04-09T01:49:15;6.30;97.70
17815;DHT22;9031;50.974;11.330;2023-04-09T01:51:41;6.30;98.20
17815;DHT22;9031;50.974;11.330;2023-04-09T01:54:07;6.20;97.90
17815;DHT22;9031;50.974;11.330;2023-04-09T01:56:40;6.40;97.80
17815;DHT22;9031;50.974;11.330;2023-04-09T01:59:05;6.50;97.60
17815;DHT22;9031;50.974;11.330;2023-04-09T02:01:51;6.50;97.40
17815;DHT22;9031;50.974;11.330;2023-04-09T02:04:34;6.50;97.30
17815;DHT22;9031;50.974;11.330;2023-04-09T02:07:09;6.40;97.60
17815;DHT22;9031;50.974;11.330;2023-04-09T02:09:38;6.50;97.50
17815;DHT22;9031;50.974;11.330;2023-04-09T02:12:05;6.40;97.70
17815;DHT22;9031;50.974;11.330;2023-04-09T02:14:34;6.40;97.60
17815;DHT22;9031;50.974;11.330;2023-04-09T02:17:00;6.30;97.70
17815;DHT22;9031;50.974;11.330;2023-04-09T02:19:40;6.40;97.40
17815;DHT22;9031;50.974;11.330;2023-04-09T02:22:06;6.50;97.50
17815;DHT22;9031;50.974;11.330;2023-04-09T02:24:31;6.60;97.00
17815;DHT22;9031;50.974;11.330;2023-04-09T02:26:57;6.60;96.80
17815;DHT22;9031;50.974;11.330;2023-04-09T02:29:23;6.50;96.80
17815;DHT22;9031;50.974;11.330;2023-04-09T02:31:48;6.40;97.10
17815;DHT22;9031;50.974;11.330;2023-04-09T02:34:17;6.30;97.40
17815;DHT22;9031;50.974;11.330;2023-04-09T02:36:43;6.20;97.70
17815;DHT22;9031;50.974;11.330;2023-04-09T02:39:08;6.20;97.80
17815;DHT22;9031;50.974;11.330;2023-04-09T02:41:34;6.30;97.60
17815;DHT22;9031;50.974;11.330;2023-04-09T02:43:59;6.40;97.30
17815;DHT22;9031;50.974;11.330;2023-04-09T02:46:25;6.40;97.40
17815;DHT22;9031;50.974;11.330;2023-04-09T02:48:50;6.40;97.40
17815;DHT22;9031;50.974;11.330;2023-04-09T02:51:16;6.40;97.10
17815;DHT22;9031;50.974;11.330;2023-04-09T02:53:41;6.30;97.50
17815;DHT22;9031;50.974;11.330;2023-04-09T02:56:07;6.40;97.40
17815;DHT22;9031;50.974;11.330;2023-04-09T02:58:32;6.30;97.60
17815;DHT22;9031;50.974;11.330;2023-04-09T03:00:58;6.20;97.60
17815;DHT22;9031;50.974;11.330;2023-04-09T03:03:23;6.30;97.50
17815;DHT22;9031;50.974;11.330;2023-04-09T03:05:49;6.40;97.40
17815;DHT22;9031;50.974;11.330;2023-04-09T03:08:14;6.30;97.50
17815;DHT22;9031;50.974;11.330;2023-04-09T03:10:40;6.20;97.70
17815;DHT22;9031;50.974;11.330;2023-04-09T03:13:05;6.30;97.70
17815;DHT22;9031;50.974;11.330;2023-04-09T03:15:31;6.30;97.60
17815;DHT22;9031;50.974;11.330;2023-04-09T03:17:56;6.30;97.50
17815;DHT22;9031;50.974;11.330;2023-04-09T03:20:22;6.30;97.50
17815;DHT22;9031;50.974;11.330;2023-04-09T03:22:47;6.20;97.70
17815;DHT22;9031;50.974;11.330;2023-04-09T03:25:13;6.00;98.20
17815;DHT22;9031;50.974;11.330;2023-04-09T03:27:38;6.00;98.40
17815;DHT22;9031;50.974;11.330;2023-04-09T03:30:04;6.00;98.20
17815;DHT22;9031;50.974;11.330;2023-04-09T03:32:30;5.90;98.30
17815;DHT22;9031;50.974;11.330;2023-04-09T03:34:55;5.90;98.60
17815;DHT22;9031;50.974;11.330;2023-04-09T03:37:21;5.90;98.60
17815;DHT22;9031;50.974;11.330;2023-04-09T03:39:46;5.70;99.00
17815;DHT22;9031;50.974;11.330;2023-04-09T03:42:12;5.70;99.10
17815;DHT22;9031;50.974;11.330;2023-04-09T03:44:37;5.70;99.00
17815;DHT22;9031;50.974;11.330;2023-04-09T03:47:03;5.60;99.40
17815;DHT22;9031;50.974;11.330;2023-04-09T03:49:28;5.60;99.10
17815;DHT22;9031;50.974;11.330;2023-04-09T03:51:53;5.50;99.30
17815;DHT22;9031;50.974;11.330;2023-04-09T03:54:19;5.50;99.50
17815;DHT22;9031;50.974;11.330;2023-04-09T03:56:45;5.40;99.60
17815;DHT22;9031;50.974;11.330;2023-04-09T03:59:10;5.30;99.70
17815;DHT22;9031;50.974;11.330;2023-04-09T04:01:36;5.20;99.80
17815;DHT22;9031;50.974;11.330;2023-04-09T04:04:01;5.20;99.70
17815;DHT22;9031;50.974;11.330;2023-04-09T04:06:27;5.10;99.70
17815;DHT22;9031;50.974;11.330;2023-04-09T04:08:52;5.00;99.90
17815;DHT22;9031;50.974;11.330;2023-04-09T04:11:18;4.90;99.90
17815;DHT22;9031;50.974;11.330;2023-04-09T04:13:43;4.80;99.90
17815;DHT22;9031;50.974;11.330;2023-04-09T04:16:09;4.80;99.90
17815;DHT22;9031;50.974;11.330;2023-04-09T04:18:35;4.80;99.90
17815;DHT22;9031;50.974;11.330;2023-04-09T04:21:01;4.70;99.90
17815;DHT22;9031;50.974;11.330;2023-04-09T04:23:26;4.60;99.90
17815;DHT22;9031;50.974;11.330;2023-04-09T04:25:52;4.50;99.90
17815;DHT22;9031;50.974;11.330;2023-04-09T04:28:17;4.60;99.90
17815;DHT22;9031;50.974;11.330;2023-04-09T04:30:43;4.60;99.90
17815;DHT22;9031;50.974;11.330;2023-04-09T04:33:08;4.70;99.90
17815;DHT22;9031;50.974;11.330;2023-04-09T04:35:34;4.60;99.90
17815;DHT22;9031;50.974;11.330;2023-04-09T04:38:00;4.50;99.90
17815;DHT22;9031;50.974;11.330;2023-04-09T04:40:26;4.50;99.90
17815;DHT22;9031;50.974;11.330;2023-04-09T04:42:51;4.40;99.90
17815;DHT22;9031;50.974;11.330;2023-04-09T04:45:17;4.40;99.90
17815;DHT22;9031;50.974;11.330;2023-04-09T04:47:42;4.40;99.90
17815;DHT22;9031;50.974;11.330;2023-04-09T04:50:08;4.40;99.90
17815;DHT22;9031;50.974;11.330;2023-04-09T04:52:34;4.40;99.90
17815;DHT22;9031;50.974;11.330;2023-04-09T04:55:00;4.30;99.90
17815;DHT22;9031;50.974;11.330;2023-04-09T04:57:25;4.10;99.90
17815;DHT22;9031;50.974;11.330;2023-04-09T04:59:51;3.90;99.90
17815;DHT22;9031;50.974;11.330;2023-04-09T05:02:16;3.80;99.90
17815;DHT22;9031;50.974;11.330;2023-04-09T05:04:42;3.70;99.90
17815;DHT22;9031;50.974;11.330;2023-04-09T05:07:07;3.60;99.90
17815;DHT22;9031;50.974;11.330;2023-04-09T05:09:33;3.70;99.90
17815;DHT22;9031;50.974;11.330;2023-04-09T05:11:58;3.80;99.90
17815;DHT22;9031;50.974;11.330;2023-04-09T05:14:24;4.00;99.90
17815;DHT22;9031;50.974;11.330;2023-04-09T05:16:49;4.00;99.90
17815;DHT22;9031;50.974;11.330;2023-04-09T05:19:15;4.00;99.90
17815;DHT22;9031;50.974;11.330;2023-04-09T05:21:40;3.70;99.90
17815;DHT22;9031;50.974;11.330;2023-04-09T05:24:06;3.60;99.90
17815;DHT22;9031;50.974;11.330;2023-04-09T05:26:31;3.60;99.90
17815;DHT22;9031;50.974;11.330;2023-04-09T05:28:57;3.60;99.90
17815;DHT22;9031;50.974;11.330;2023-04-09T05:31:23;3.80;99.90
17815;DHT22;9031;50.974;11.330;2023-04-09T05:33:48;4.00;99.90
17815;DHT22;9031;50.974;11.330;2023-04-09T05:36:15;4.10;99.90
17815;DHT22;9031;50.974;11.330;2023-04-09T05:38:42;4.20;99.90
17815;DHT22;9031;50.974;11.330;2023-04-09T05:41:08;3.90;99.90
17815;DHT22;9031;50.974;11.330;2023-04-09T05:43:33;3.60;99.90
17815;DHT22;9031;50.974;11.330;2023-04-09T05:45:59;3.80;99.90
17815;DHT22;9031;50.974;11.330;2023-04-09T05:48:24;3.50;99.90
17815;DHT22;9031;50.974;11.330;2023-04-09T05:50:50;3.40;99.90
17815;DHT22;9031;50.974;11.330;2023-04-09T05:53:19;3.30;99.90
17815;DHT22;9031;50.974;11.330;2023-04-09T05:55:45;3.60;99.90
17815;DHT22;9031;50.974;11.330;2023-04-09T05:58:13;3.80;99.90
17815;DHT22;9031;50.974;11.330;2023-04-09T06:00:40;3.60;99.90
17815;DHT22;9031;50.974;11.330;2023-04-09T06:03:07;3.50;99.90
17815;DHT22;9031;50.974;11.330;2023-04-09T06:05:32;3.60;99.90
17815;DHT22;9031;50.974;11.330;2023-04-09T06:07:58;3.30;99.90
17815;DHT22;9031;50.974;11.330;2023-04-09T06:10:23;3.30;99.90
17815;DHT22;9031;50.974;11.330;2023-04-09T06:12:49;3.40;99.90
17815;DHT22;9031;50.974;11.330;2023-04-09T06:15:15;3.70;99.90
17815;DHT22;9031;50.974;11.330;2023-04-09T06:17:40;3.90;99.90
17815;DHT22;9031;50.974;11.330;2023-04-09T06:20:06;4.10;99.90
17815;DHT22;9031;50.974;11.330;2023-04-09T06:22:32;3.90;99.90
17815;DHT22;9031;50.974;11.330;2023-04-09T06:24:57;3.90;99.90
17815;DHT22;9031;50.974;11.330;2023-04-09T06:27:23;4.20;99.90
17815;DHT22;9031;50.974;11.330;2023-04-09T06:29:48;4.50;99.90
17815;DHT22;9031;50.974;11.330;2023-04-09T06:32:15;4.50;99.50
17815;DHT22;9031;50.974;11.330;2023-04-09T06:34:41;4.30;99.90
17815;DHT22;9031;50.974;11.330;2023-04-09T06:37:06;4.60;99.80
17815;DHT22;9031;50.974;11.330;2023-04-09T06:39:31;4.90;99.50
17815;DHT22;9031;50.974;11.330;2023-04-09T06:41:57;5.30;98.70
17815;DHT22;9031;50.974;11.330;2023-04-09T06:44:23;5.60;98.10
17815;DHT22;9031;50.974;11.330;2023-04-09T06:46:49;5.60;97.60
17815;DHT22;9031;50.974;11.330;2023-04-09T06:49:14;5.70;97.60
17815;DHT22;9031;50.974;11.330;2023-04-09T06:51:40;5.60;98.10
17815;DHT22;9031;50.974;11.330;2023-04-09T06:54:06;5.70;97.90
17815;DHT22;9031;50.974;11.330;2023-04-09T06:56:32;5.70;97.70
17815;DHT22;9031;50.974;11.330;2023-04-09T06:58:57;5.80;97.50
17815;DHT22;9031;50.974;11.330;2023-04-09T07:01:23;6.10;97.10
17815;DHT22;9031;50.974;11.330;2023-04-09T07:03:49;6.20;96.40
17815;DHT22;9031;50.974;11.330;2023-04-09T07:06:15;6.20;97.20
17815;DHT22;9031;50.974;11.330;2023-04-09T07:08:40;6.30;97.00
17815;DHT22;9031;50.974;11.330;2023-04-09T07:11:06;6.60;96.30
17815;DHT22;9031;50.974;11.330;2023-04-09T07:13:31;6.70;96.10
17815;DHT22;9031;50.974;11.330;2023-04-09T07:15:57;6.90;95.50
17815;DHT22;9031;50.974;11.330;2023-04-09T07:18:22;7.30;95.10
17815;DHT22;9031;50.974;11.330;2023-04-09T07:20:48;7.20;95.20
17815;DHT22;9031;50.974;11.330;2023-04-09T07:23:13;7.30;95.30
17815;DHT22;9031;50.974;11.330;2023-04-09T07:25:39;7.40;95.00
17815;DHT22;9031;50.974;11.330;2023-04-09T07:28:04;7.30;95.30
17815;DHT22;9031;50.974;11.330;2023-04-09T07:30:30;7.40;95.50
17815;DHT22;9031;50.974;11.330;2023-04-09T07:32:56;7.30;95.50
17815;DHT22;9031;50.974;11.330;2023-04-09T07:35:21;7.00;96.40
17815;DHT22;9031;50.974;11.330;2023-04-09T07:37:46;6.80;97.00
17815;DHT22;9031;50.974;11.330;2023-04-09T07:40:12;7.20;96.10
17815;DHT22;9031;50.974;11.330;2023-04-09T07:42:38;7.40;95.60
17815;DHT22;9031;50.974;11.330;2023-04-09T07:45:04;7.00;95.70
17815;DHT22;9031;50.974;11.330;2023-04-09T07:47:30;7.20;95.80
17815;DHT22;9031;50.974;11.330;2023-04-09T07:49:56;6.90;96.20
17815;DHT22;9031;50.974;11.330;2023-04-09T07:52:22;6.90;96.40
17815;DHT22;9031;50.974;11.330;2023-04-09T07:54:47;6.90;96.60
17815;DHT22;9031;50.974;11.330;2023-04-09T07:57:13;7.20;96.00
17815;DHT22;9031;50.974;11.330;2023-04-09T07:59:38;7.70;95.30
17815;DHT22;9031;50.974;11.330;2023-04-09T08:02:04;7.70;95.20
17815;DHT22;9031;50.974;11.330;2023-04-09T08:04:30;8.10;94.10
17815;DHT22;9031;50.974;11.330;2023-04-09T08:06:56;7.40;93.90
17815;DHT22;9031;50.974;11.330;2023-04-09T08:09:22;7.70;94.90
17815;DHT22;9031;50.974;11.330;2023-04-09T08:11:48;8.30;93.60
17815;DHT22;9031;50.974;11.330;2023-04-09T08:14:14;8.10;94.40
17815;DHT22;9031;50.974;11.330;2023-04-09T08:16:45;8.50;93.50
17815;DHT22;9031;50.974;11.330;2023-04-09T08:19:12;8.90;92.70
17815;DHT22;9031;50.974;11.330;2023-04-09T08:21:40;9.10;92.00
17815;DHT22;9031;50.974;11.330;2023-04-09T08:24:11;9.40;91.40
17815;DHT22;9031;50.974;11.330;2023-04-09T08:26:37;9.10;91.00
17815;DHT22;9031;50.974;11.330;2023-04-09T08:29:03;9.00;91.80
17815;DHT22;9031;50.974;11.330;2023-04-09T08:31:29;9.20;90.60
17815;DHT22;9031;50.974;11.330;2023-04-09T08:33:54;9.30;91.10
17815;DHT22;9031;50.974;11.330;2023-04-09T08:36:21;9.90;90.30
17815;DHT22;9031;50.974;11.330;2023-04-09T08:38:47;10.30;88.50
17815;DHT22;9031;50.974;11.330;2023-04-09T08:41:20;10.20;88.20
17815;DHT22;9031;50.974;11.330;2023-04-09T08:43:47;10.20;87.80
17815;DHT22;9031;50.974;11.330;2023-04-09T08:46:14;10.40;87.40
17815;DHT22;9031;50.974;11.330;2023-04-09T08:48:45;10.80;86.60
17815;DHT22;9031;50.974;11.330;2023-04-09T08:51:12;10.90;82.30
17815;DHT22;9031;50.974;11.330;2023-04-09T08:56:06;10.90;82.60
17815;DHT22;9031;50.974;11.330;2023-04-09T08:58:31;11.00;80.40
17815;DHT22;9031;50.974;11.330;2023-04-09T09:00:57;11.20;79.70
17815;DHT22;9031;50.974;11.330;2023-04-09T09:03:22;11.50;76.80
17815;DHT22;9031;50.974;11.330;2023-04-09T09:05:48;11.60;75.60
17815;DHT22;9031;50.974;11.330;2023-04-09T09:08:22;12.10;73.40
17815;DHT22;9031;50.974;11.330;2023-04-09T09:10:48;11.90;71.70
17815;DHT22;9031;50.974;11.330;2023-04-09T09:13:23;12.10;69.30
17815;DHT22;9031;50.974;11.330;2023-04-09T09:15:54;12.70;68.80
17815;DHT22;9031;50.974;11.330;2023-04-09T09:18:41;13.00;68.20
17815;DHT22;9031;50.974;11.330;2023-04-09T09:21:14;13.40;66.50
17815;DHT22;9031;50.974;11.330;2023-04-09T09:23:41;13.50;68.70
17815;DHT22;9031;50.974;11.330;2023-04-09T09:26:11;13.30;67.50
17815;DHT22;9031;50.974;11.330;2023-04-09T09:28:37;12.70;65.40
17815;DHT22;9031;50.974;11.330;2023-04-09T09:31:10;13.10;66.20
17815;DHT22;9031;50.974;11.330;2023-04-09T09:33:36;13.60;62.40
17815;DHT22;9031;50.974;11.330;2023-04-09T09:36:02;13.70;64.30
17815;DHT22;9031;50.974;11.330;2023-04-09T09:38:30;13.50;65.30
17815;DHT22;9031;50.974;11.330;2023-04-09T09:40:57;14.10;67.10
17815;DHT22;9031;50.974;11.330;2023-04-09T09:43:39;14.00;64.80
17815;DHT22;9031;50.974;11.330;2023-04-09T09:46:06;14.20;62.20
17815;DHT22;9031;50.974;11.330;2023-04-09T09:48:31;13.70;67.70
17815;DHT22;9031;50.974;11.330;2023-04-09T09:50:58;13.50;64.40
17815;DHT22;9031;50.974;11.330;2023-04-09T09:53:24;13.40;69.60
17815;DHT22;9031;50.974;11.330;2023-04-09T09:55:52;14.30;64.30
17815;DHT22;9031;50.974;11.330;2023-04-09T09:58:25;14.60;63.70
17815;DHT22;9031;50.974;11.330;2023-04-09T10:00:51;14.30;65.10
17815;DHT22;9031;50.974;11.330;2023-04-09T10:03:24;13.20;67.20
17815;DHT22;9031;50.974;11.330;2023-04-09T10:05:49;13.80;70.00
17815;DHT22;9031;50.974;11.330;2023-04-09T10:08:15;14.50;64.00
17815;DHT22;9031;50.974;11.330;2023-04-09T10:10:42;15.00;59.60
17815;DHT22;9031;50.974;11.330;2023-04-09T10:13:42;14.90;60.20
17815;DHT22;9031;50.974;11.330;2023-04-09T10:16:10;15.10;61.30
17815;DHT22;9031;50.974;11.330;2023-04-09T10:18:37;15.10;60.50
17815;DHT22;9031;50.974;11.330;2023-04-09T10:21:17;14.50;61.80
17815;DHT22;9031;50.974;11.330;2023-04-09T10:23:48;15.40;57.40
17815;DHT22;9031;50.974;11.330;2023-04-09T10:26:17;18.50;53.40
17815;DHT22;9031;50.974;11.330;2023-04-09T10:28:42;20.30;47.70
17815;DHT22;9031;50.974;11.330;2023-04-09T10:31:08;21.50;43.90
17815;DHT22;9031;50.974;11.330;2023-04-09T10:33:36;21.40;41.80
17815;DHT22;9031;50.974;11.330;2023-04-09T10:36:04;20.40;42.30
17815;DHT22;9031;50.974;11.330;2023-04-09T10:38:38;22.00;42.80
17815;DHT22;9031;50.974;11.330;2023-04-09T10:43:40;22.50;41.70
17815;DHT22;9031;50.974;11.330;2023-04-09T10:46:08;23.90;37.80
17815;DHT22;9031;50.974;11.330;2023-04-09T10:49:30;23.60;38.20
17815;DHT22;9031;50.974;11.330;2023-04-09T10:52:05;21.10;41.50
17815;DHT22;9031;50.974;11.330;2023-04-09T10:57:09;22.80;40.00
17815;DHT22;9031;50.974;11.330;2023-04-09T10:59:39;24.40;36.00
17815;DHT22;9031;50.974;11.330;2023-04-09T11:02:30;24.30;35.80
17815;DHT22;9031;50.974;11.330;2023-04-09T11:07:52;24.40;35.60
17815;DHT22;9031;50.974;11.330;2023-04-09T11:10:19;25.60;33.60
17815;DHT22;9031;50.974;11.330;2023-04-09T11:12:49;23.50;37.10
17815;DHT22;9031;50.974;11.330;2023-04-09T11:15:16;24.20;36.50
17815;DHT22;9031;50.974;11.330;2023-04-09T11:17:42;24.20;36.40
17815;DHT22;9031;50.974;11.330;2023-04-09T11:20:09;23.90;36.60
17815;DHT22;9031;50.974;11.330;2023-04-09T11:22:35;22.00;36.10
17815;DHT22;9031;50.974;11.330;2023-04-09T11:25:00;22.80;38.50
17815;DHT22;9031;50.974;11.330;2023-04-09T11:27:27;23.20;37.20
17815;DHT22;9031;50.974;11.330;2023-04-09T11:29:55;23.70;36.70
17815;DHT22;9031;50.974;11.330;2023-04-09T11:32:21;23.60;37.00
17815;DHT22;9031;50.974;11.330;2023-04-09T11:34:47;23.60;35.70
17815;DHT22;9031;50.974;11.330;2023-04-09T11:37:15;24.40;35.90
17815;DHT22;9031;50.974;11.330;2023-04-09T11:39:44;26.20;33.00
17815;DHT22;9031;50.974;11.330;2023-04-09T11:42:13;26.60;31.90
17815;DHT22;9031;50.974;11.330;2023-04-09T11:44:39;26.00;32.30
17815;DHT22;9031;50.974;11.330;2023-04-09T11:47:05;25.40;32.90
17815;DHT22;9031;50.974;11.330;2023-04-09T11:49:31;25.60;33.40
17815;DHT22;9031;50.974;11.330;2023-04-09T11:51:57;25.20;33.50
17815;DHT22;9031;50.974;11.330;2023-04-09T11:54:30;26.30;33.30
17815;DHT22;9031;50.974;11.330;2023-04-09T11:56:58;26.20;33.40
17815;DHT22;9031;50.974;11.330;2023-04-09T11:59:24;26.60;31.70
17815;DHT22;9031;50.974;11.330;2023-04-09T12:01:50;26.00;31.70
17815;DHT22;9031;50.974;11.330;2023-04-09T12:04:22;25.90;31.50
17815;DHT22;9031;50.974;11.330;2023-04-09T12:06:47;24.30;34.00
17815;DHT22;9031;50.974;11.330;2023-04-09T12:09:13;24.40;33.50
17815;DHT22;9031;50.974;11.330;2023-04-09T12:11:42;25.30;33.20
17815;DHT22;9031;50.974;11.330;2023-04-09T12:14:15;24.20;34.30
17815;DHT22;9031;50.974;11.330;2023-04-09T12:16:42;25.20;33.50
17815;DHT22;9031;50.974;11.330;2023-04-09T12:19:11;26.30;32.60
17815;DHT22;9031;50.974;11.330;2023-04-09T12:21:51;24.50;33.30
17815;DHT22;9031;50.974;11.330;2023-04-09T12:24:23;23.90;34.30
17815;DHT22;9031;50.974;11.330;2023-04-09T12:26:49;23.70;34.70
17815;DHT22;9031;50.974;11.330;2023-04-09T12:29:17;23.90;32.50
17815;DHT22;9031;50.974;11.330;2023-04-09T12:31:43;22.40;33.30
17815;DHT22;9031;50.974;11.330;2023-04-09T12:34:09;22.00;37.20
17815;DHT22;9031;50.974;11.330;2023-04-09T12:36:35;22.70;37.20
17815;DHT22;9031;50.974;11.330;2023-04-09T12:39:00;24.00;35.50
17815;DHT22;9031;50.974;11.330;2023-04-09T12:41:26;23.10;33.70
17815;DHT22;9031;50.974;11.330;2023-04-09T12:43:51;20.80;36.60
17815;DHT22;9031;50.974;11.330;2023-04-09T12:46:18;19.30;40.00
17815;DHT22;9031;50.974;11.330;2023-04-09T12:48:44;18.70;41.50
17815;DHT22;9031;50.974;11.330;2023-04-09T12:51:10;21.40;38.50
17815;DHT22;9031;50.974;11.330;2023-04-09T12:53:36;20.60;39.10
17815;DHT22;9031;50.974;11.330;2023-04-09T12:56:02;22.90;37.50
17815;DHT22;9031;50.974;11.330;2023-04-09T12:58:27;21.80;35.80
17815;DHT22;9031;50.974;11.330;2023-04-09T13:00:53;22.10;37.70
17815;DHT22;9031;50.974;11.330;2023-04-09T13:03:21;24.20;34.70
17815;DHT22;9031;50.974;11.330;2023-04-09T13:05:47;25.00;32.30
17815;DHT22;9031;50.974;11.330;2023-04-09T13:08:13;22.00;34.40
17815;DHT22;9031;50.974;11.330;2023-04-09T13:10:38;22.10;34.60
17815;DHT22;9031;50.974;11.330;2023-04-09T13:13:04;23.70;35.00
17815;DHT22;9031;50.974;11.330;2023-04-09T13:15:31;24.90;32.40
17815;DHT22;9031;50.974;11.330;2023-04-09T13:17:56;23.10;35.20
17815;DHT22;9031;50.974;11.330;2023-04-09T13:20:22;24.20;34.20
17815;DHT22;9031;50.974;11.330;2023-04-09T13:22:47;23.30;35.20
17815;DHT22;9031;50.974;11.330;2023-04-09T13:25:16;22.10;38.00
17815;DHT22;9031;50.974;11.330;2023-04-09T13:27:42;22.00;37.60
17815;DHT22;9031;50.974;11.330;2023-04-09T13:30:08;21.00;40.20
17815;DHT22;9031;50.974;11.330;2023-04-09T13:32:33;19.80;41.30
17815;DHT22;9031;50.974;11.330;2023-04-09T13:34:59;17.70;47.40
17815;DHT22;9031;50.974;11.330;2023-04-09T13:37:24;16.70;50.10
17815;DHT22;9031;50.974;11.330;2023-04-09T13:39:50;16.90;49.80
17815;DHT22;9031;50.974;11.330;2023-04-09T13:42:16;18.10;47.30
17815;DHT22;9031;50.974;11.330;2023-04-09T13:44:42;19.20;45.60
17815;DHT22;9031;50.974;11.330;2023-04-09T13:47:13;18.30;46.20
17815;DHT22;9031;50.974;11.330;2023-04-09T13:49:40;19.30;44.70
17815;DHT22;9031;50.974;11.330;2023-04-09T13:52:06;21.80;38.70
17815;DHT22;9031;50.974;11.330;2023-04-09T13:54:33;23.30;35.70
17815;DHT22;9031;50.974;11.330;2023-04-09T13:56:59;21.70;37.50
17815;DHT22;9031;50.974;11.330;2023-04-09T13:59:24;21.70;37.50
17815;DHT22;9031;50.974;11.330;2023-04-09T14:01:50;22.20;38.60
17815;DHT22;9031;50.974;11.330;2023-04-09T14:04:16;22.50;38.20
17815;DHT22;9031;50.974;11.330;2023-04-09T14:06:42;23.20;37.50
17815;DHT22;9031;50.974;11.330;2023-04-09T14:09:08;22.90;37.30
17815;DHT22;9031;50.974;11.330;2023-04-09T14:11:34;22.00;38.80
17815;DHT22;9031;50.974;11.330;2023-04-09T14:13:59;22.00;38.60
17815;DHT22;9031;50.974;11.330;2023-04-09T14:16:25;23.10;35.40
17815;DHT22;9031;50.974;11.330;2023-04-09T14:18:52;22.60;35.50
17815;DHT22;9031;50.974;11.330;2023-04-09T14:21:17;22.70;36.10
17815;DHT22;9031;50.974;11.330;2023-04-09T14:23:43;22.10;37.90
17815;DHT22;9031;50.974;11.330;2023-04-09T14:26:09;22.70;37.70
17815;DHT22;9031;50.974;11.330;2023-04-09T14:28:35;22.70;36.50
17815;DHT22;9031;50.974;11.330;2023-04-09T14:31:02;21.90;36.90
17815;DHT22;9031;50.974;11.330;2023-04-09T14:33:27;22.60;37.30
17815;DHT22;9031;50.974;11.330;2023-04-09T14:35:53;23.70;36.30
17815;DHT22;9031;50.974;11.330;2023-04-09T14:38:19;22.90;36.50
17815;DHT22;9031;50.974;11.330;2023-04-09T14:40:44;24.20;35.00
17815;DHT22;9031;50.974;11.330;2023-04-09T14:43:10;23.10;34.50
17815;DHT22;9031;50.974;11.330;2023-04-09T14:45:35;23.20;36.60
17815;DHT22;9031;50.974;11.330;2023-04-09T14:48:01;21.70;36.20
17815;DHT22;9031;50.974;11.330;2023-04-09T14:50:29;21.10;38.60
17815;DHT22;9031;50.974;11.330;2023-04-09T14:52:55;20.80;39.50
17815;DHT22;9031;50.974;11.330;2023-04-09T14:55:20;19.80;40.40
17815;DHT22;9031;50.974;11.330;2023-04-09T14:57:46;19.70;42.70
17815;DHT22;9031;50.974;11.330;2023-04-09T15:00:12;20.30;41.40
17815;DHT22;9031;50.974;11.330;2023-04-09T15:02:37;21.00;42.00
17815;DHT22;9031;50.974;11.330;2023-04-09T15:05:03;21.70;40.40
17815;DHT22;9031;50.974;11.330;2023-04-09T15:07:30;21.40;40.50
17815;DHT22;9031;50.974;11.330;2023-04-09T15:09:56;20.20;42.80
17815;DHT22;9031;50.974;11.330;2023-04-09T15:12:31;19.20;45.20
17815;DHT22;9031;50.974;11.330;2023-04-09T15:14:57;18.70;47.20
17815;DHT22;9031;50.974;11.330;2023-04-09T15:17:23;18.30;46.80
17815;DHT22;9031;50.974;11.330;2023-04-09T15:19:49;17.90;47.10
17815;DHT22;9031;50.974;11.330;2023-04-09T15:22:15;18.30;48.50
17815;DHT22;9031;50.974;11.330;2023-04-09T15:24:40;19.40;45.20
17815;DHT22;9031;50.974;11.330;2023-04-09T15:27:06;19.60;45.00
17815;DHT22;9031;50.974;11.330;2023-04-09T15:29:32;20.60;42.60
17815;DHT22;9031;50.974;11.330;2023-04-09T15:31:57;20.40;41.80
17815;DHT22;9031;50.974;11.330;2023-04-09T15:34:23;20.10;42.50
17815;DHT22;9031;50.974;11.330;2023-04-09T15:36:50;19.50;44.90
17815;DHT22;9031;50.974;11.330;2023-04-09T15:39:15;19.50;44.40
17815;DHT22;9031;50.974;11.330;2023-04-09T15:41:41;20.00;43.00
17815;DHT22;9031;50.974;11.330;2023-04-09T15:44:07;20.30;41.90
17815;DHT22;9031;50.974;11.330;2023-04-09T15:46:33;20.90;41.60
17815;DHT22;9031;50.974;11.330;2023-04-09T15:48:58;19.80;42.00
17815;DHT22;9031;50.974;11.330;2023-04-09T15:51:24;20.30;42.00
17815;DHT22;9031;50.974;11.330;2023-04-09T15:53:49;20.70;42.00